createdAt,value
2022-08-07T00:02:36.670Z,96249.00
2022-08-07T00:06:51.822Z,96254.00
2022-08-07T00:10:57.639Z,96248.00
2022-08-07T00:15:01.168Z,96258.00
2022-08-07T00:19:04.082Z,96252.00
2022-08-07T00:23:08.787Z,96254.00
2022-08-07T00:27:12.941Z,96248.00
2022-08-07T00:31:17.805Z,96246.00
2022-08-07T00:35:23.025Z,96254.00
2022-08-07T00:39:26.107Z,96231.00
2022-08-07T00:44:01.888Z,96238.00
2022-08-07T00:48:08.034Z,96233.00
2022-08-07T00:52:14.230Z,96232.00
2022-08-07T00:56:23.098Z,96222.00
2022-08-07T01:00:34.716Z,96220.00
2022-08-07T01:04:43.470Z,96207.00
2022-08-07T01:08:53.267Z,96214.00
2022-08-07T01:12:58.375Z,96208.00
2022-08-07T01:17:07.133Z,96202.00
2022-08-07T01:21:22.400Z,96201.00
2022-08-07T01:25:54.303Z,96193.00
2022-08-07T01:29:50.493Z,96186.00
2022-08-07T01:33:57.392Z,96184.00
2022-08-07T01:38:05.100Z,96183.00
2022-08-07T01:42:39.299Z,96189.00
2022-08-07T01:46:31.338Z,96188.00
2022-08-07T01:50:37.307Z,96189.00
2022-08-07T01:54:47.027Z,96179.00
2022-08-07T01:58:54.381Z,96181.00
2022-08-07T02:03:12.387Z,96179.00
2022-08-07T02:07:35.861Z,96173.00
2022-08-07T02:12:03.527Z,96179.00
2022-08-07T02:16:11.986Z,96180.00
2022-08-07T02:20:23.578Z,96171.00
2022-08-07T02:24:31.292Z,96173.00
2022-08-07T02:28:38.578Z,96166.00
2022-08-07T02:33:00.593Z,96154.00
2022-08-07T02:37:11.272Z,96159.00
2022-08-07T02:41:21.879Z,96153.00
2022-08-07T02:46:00.505Z,96167.00
2022-08-07T02:49:58.492Z,96159.00
2022-08-07T02:54:09.647Z,96158.00
2022-08-07T02:58:16.361Z,96153.00
2022-08-07T03:02:27.201Z,96160.00
2022-08-07T03:06:33.066Z,96160.00
2022-08-07T03:10:40.712Z,96161.00
2022-08-07T03:14:52.933Z,96158.00
2022-08-07T03:18:58.066Z,96161.00
2022-08-07T03:23:01.446Z,96161.00
2022-08-07T03:27:09.059Z,96161.00
2022-08-07T03:31:26.246Z,96169.00
2022-08-07T03:35:50.226Z,96171.00
2022-08-07T03:40:00.089Z,96174.00
2022-08-07T03:44:16.631Z,96173.00
2022-08-07T03:49:01.893Z,96167.00
2022-08-07T03:53:00.631Z,96172.00
2022-08-07T03:57:07.332Z,96166.00
2022-08-07T04:01:14.425Z,96161.00
2022-08-07T04:05:24.150Z,96150.00
2022-08-07T04:09:50.407Z,96167.00
2022-08-07T04:14:09.225Z,96163.00
2022-08-07T04:18:57.024Z,96157.00
2022-08-07T04:22:53.785Z,96156.00
2022-08-07T04:27:14.999Z,96152.00
2022-08-07T04:31:38.689Z,96157.00
2022-08-07T04:35:50.125Z,96154.00
2022-08-07T04:39:55.290Z,96156.00
2022-08-07T04:44:11.863Z,96149.00
2022-08-07T04:48:29.354Z,96159.00
2022-08-07T04:52:46.648Z,96159.00
2022-08-07T04:58:16.821Z,96153.00
2022-08-07T05:01:40.358Z,96145.00
2022-08-07T05:05:53.512Z,96152.00
2022-08-07T05:10:05.582Z,96157.00
2022-08-07T05:14:52.510Z,96152.00
2022-08-07T05:18:45.298Z,96144.00
2022-08-07T05:22:52.924Z,96152.00
2022-08-07T05:27:01.038Z,96152.00
2022-08-07T05:31:06.410Z,96155.00
2022-08-07T05:35:13.213Z,96152.00
2022-08-07T05:40:05.400Z,96151.00
2022-08-07T05:44:07.758Z,96152.00
2022-08-07T05:48:08.503Z,96152.00
2022-08-07T05:52:20.599Z,96147.00
2022-08-07T05:56:35.715Z,96152.00
2022-08-07T06:00:40.830Z,96147.00
2022-08-07T06:04:56.107Z,96133.00
2022-08-07T06:09:04.316Z,96142.00
2022-08-07T06:13:13.303Z,96135.00
2022-08-07T06:17:19.071Z,96140.00
2022-08-07T06:22:15.726Z,96137.00
2022-08-07T06:25:54.449Z,96137.00
2022-08-07T06:30:01.503Z,96142.00
2022-08-07T06:34:05.015Z,96143.00
2022-08-07T06:38:10.006Z,96147.00
2022-08-07T06:42:34.780Z,96157.00
2022-08-07T06:47:12.067Z,96164.00
2022-08-07T06:51:31.005Z,96151.00
2022-08-07T06:56:00.197Z,96158.00
2022-08-07T07:00:13.059Z,96155.00
2022-08-07T07:04:27.683Z,96151.00
2022-08-07T07:08:34.935Z,96158.00
2022-08-07T07:12:53.328Z,96157.00
2022-08-07T07:17:03.907Z,96166.00
2022-08-07T07:21:13.633Z,96165.00
2022-08-07T07:26:34.662Z,96169.00
2022-08-07T07:30:08.759Z,96166.00
2022-08-07T07:34:19.130Z,96167.00
2022-08-07T07:38:24.532Z,96174.00
2022-08-07T07:42:32.942Z,96170.00
2022-08-07T07:46:54.287Z,96166.00
2022-08-07T07:51:03.286Z,96155.00
2022-08-07T07:55:11.516Z,96149.00
2022-08-07T07:59:15.603Z,96149.00
2022-08-07T08:04:10.573Z,96154.00
2022-08-07T08:07:59.631Z,96151.00
2022-08-07T08:12:05.143Z,96146.00
2022-08-07T08:16:12.740Z,96146.00
2022-08-07T08:20:23.177Z,96144.00
2022-08-07T08:25:03.239Z,96145.00
2022-08-07T08:29:14.022Z,96147.00
2022-08-07T08:33:21.989Z,96145.00
2022-08-07T08:37:59.681Z,96150.00
2022-08-07T08:41:59.527Z,96152.00
2022-08-07T08:46:07.966Z,96154.00
2022-08-07T08:50:35.285Z,96157.00
2022-08-07T08:54:48.013Z,96144.00
2022-08-07T08:58:56.625Z,96139.00
2022-08-07T09:03:08.331Z,96147.00
2022-08-07T09:07:24.360Z,96130.00
2022-08-07T09:11:43.390Z,96131.00
2022-08-07T09:16:25.379Z,96119.00
2022-08-07T09:20:34.826Z,96125.00
2022-08-07T09:25:00.260Z,96120.00
2022-08-07T09:30:06.306Z,96128.00
2022-08-07T09:33:57.703Z,96128.00
2022-08-07T09:38:10.955Z,96125.00
2022-08-07T09:42:33.450Z,96109.00
2022-08-07T09:47:54.990Z,96112.00
2022-08-07T09:52:15.569Z,96103.00
2022-08-07T09:56:49.902Z,96123.00
2022-08-07T10:01:08.392Z,96130.00
2022-08-07T10:06:00.015Z,96108.00
2022-08-07T10:10:21.638Z,96110.00
2022-08-07T10:14:42.699Z,96112.00
2022-08-07T10:19:11.355Z,96099.00
2022-08-07T10:24:06.925Z,96105.00
2022-08-07T10:28:26.466Z,96101.00
2022-08-07T10:32:53.369Z,96096.00
2022-08-07T10:37:12.390Z,96099.00
2022-08-07T10:41:51.365Z,96093.00
2022-08-07T10:45:57.740Z,96091.00
2022-08-07T10:50:04.934Z,96084.00
2022-08-07T10:54:16.230Z,96096.00
2022-08-07T10:58:59.890Z,96103.00
2022-08-07T11:03:12.696Z,96116.00
2022-08-07T11:07:59.388Z,96100.00
2022-08-07T11:11:59.338Z,96093.00
2022-08-07T11:16:07.536Z,96085.00
2022-08-07T11:20:19.066Z,96094.00
2022-08-07T11:24:32.495Z,96093.00
2022-08-07T11:28:40.023Z,96088.00
2022-08-07T11:32:55.180Z,96088.00
2022-08-07T11:37:06.762Z,96087.00
2022-08-07T11:41:22.396Z,96079.00
2022-08-07T11:45:49.939Z,96084.00
2022-08-07T11:50:30.723Z,96071.00
2022-08-07T11:54:54.848Z,96075.00
2022-08-07T12:00:08.061Z,96073.00
2022-08-07T12:03:47.924Z,96078.00
2022-08-07T12:08:03.618Z,96065.00
2022-08-07T12:12:12.035Z,96048.00
2022-08-07T12:16:30.291Z,96053.00
2022-08-07T12:20:37.549Z,96053.00
2022-08-07T12:25:08.571Z,96058.00
2022-08-07T12:29:37.764Z,96055.00
2022-08-07T12:34:00.984Z,96061.00
2022-08-07T12:38:10.792Z,96065.00
2022-08-07T12:42:27.554Z,96044.00
2022-08-07T12:46:48.785Z,96031.00
2022-08-07T12:50:58.887Z,96043.00
2022-08-07T12:55:22.311Z,96054.00
2022-08-07T12:59:55.187Z,96034.00
2022-08-07T13:04:34.268Z,96050.00
2022-08-07T13:08:50.959Z,96032.00
2022-08-07T13:12:57.718Z,96038.00
2022-08-07T13:17:07.139Z,96055.00
2022-08-07T13:21:37.304Z,96050.00
2022-08-07T13:25:45.323Z,96045.00
2022-08-07T13:29:58.838Z,96046.00
2022-08-07T13:34:33.090Z,96042.00
2022-08-07T13:38:46.215Z,96045.00
2022-08-07T13:42:51.403Z,96056.00
2022-08-07T13:47:02.262Z,96056.00
2022-08-07T13:51:20.431Z,96053.00
2022-08-07T13:55:34.056Z,96053.00
2022-08-07T13:59:43.600Z,96056.00
2022-08-07T14:04:06.964Z,96047.00
2022-08-07T14:08:12.652Z,96047.00
2022-08-07T14:12:27.586Z,96055.00
2022-08-07T14:16:35.147Z,96053.00
2022-08-07T14:20:48.676Z,96051.00
2022-08-07T14:24:55.315Z,96053.00
2022-08-07T14:29:10.556Z,96046.00
2022-08-07T14:33:26.975Z,96058.00
2022-08-07T14:38:06.083Z,96057.00
2022-08-07T14:42:18.801Z,96051.00
2022-08-07T14:46:31.069Z,96057.00
2022-08-07T14:50:37.760Z,96047.00
2022-08-07T14:54:43.317Z,96045.00
2022-08-07T14:58:55.181Z,96043.00
2022-08-07T15:03:19.412Z,96048.00
2022-08-07T15:07:24.817Z,96040.00
2022-08-07T15:12:01.210Z,96049.00
2022-08-07T15:16:11.423Z,96041.00
2022-08-07T15:25:15.013Z,96028.00
2022-08-07T15:30:04.651Z,96042.00
2022-08-07T15:33:42.749Z,96028.00
2022-08-07T15:42:51.571Z,96031.00
2022-08-07T15:47:03.289Z,96026.00
2022-08-07T15:51:19.611Z,96028.00
2022-08-07T15:56:02.378Z,96028.00
2022-08-07T16:00:31.296Z,96025.00
2022-08-07T16:04:36.751Z,96033.00
2022-08-07T16:08:45.506Z,96029.00
2022-08-07T16:13:17.410Z,96033.00
2022-08-07T16:18:01.697Z,96024.00
2022-08-07T16:22:17.950Z,96022.00
2022-08-07T16:26:59.294Z,96021.00
2022-08-07T16:31:50.060Z,96028.00
2022-08-07T16:35:58.509Z,96027.00
2022-08-07T16:40:23.344Z,96021.00
2022-08-07T16:45:14.118Z,96024.00
2022-08-07T16:50:20.281Z,96018.00
2022-08-07T16:54:54.989Z,96030.00
2022-08-07T16:59:10.722Z,96021.00
2022-08-07T17:03:19.742Z,96034.00
2022-08-07T17:07:58.056Z,96026.00
2022-08-07T17:12:34.292Z,96032.00
2022-08-07T17:16:43.628Z,96032.00
2022-08-07T17:20:47.828Z,96030.00
2022-08-07T17:25:08.378Z,96036.00
2022-08-07T17:30:13.057Z,96031.00
2022-08-07T17:34:15.376Z,96038.00
2022-08-07T17:38:33.504Z,96039.00
2022-08-07T17:42:59.729Z,96042.00
2022-08-07T17:47:08.301Z,96044.00
2022-08-07T17:51:23.160Z,96032.00
2022-08-07T17:56:00.461Z,96029.00
2022-08-07T18:00:03.370Z,96034.00
2022-08-07T18:04:18.967Z,96039.00
2022-08-07T18:08:31.027Z,96034.00
2022-08-07T18:12:42.843Z,96037.00
2022-08-07T18:16:58.094Z,96037.00
2022-08-07T18:21:39.203Z,96044.00
2022-08-07T18:25:40.410Z,96054.00
2022-08-07T18:30:32.371Z,96059.00
2022-08-07T18:35:01.478Z,96074.00
2022-08-07T18:40:08.406Z,96072.00
2022-08-07T18:43:49.315Z,96081.00
2022-08-07T18:48:01.161Z,96088.00
2022-08-07T18:52:37.929Z,96094.00
2022-08-07T18:56:58.289Z,96105.00
2022-08-07T19:02:32.246Z,96110.00
2022-08-07T19:06:02.257Z,96120.00
2022-08-07T19:10:18.453Z,96122.00
2022-08-07T19:14:51.916Z,96120.00
2022-08-07T19:19:01.155Z,96130.00
2022-08-07T19:23:18.910Z,96125.00
2022-08-07T19:28:30.998Z,96130.00
2022-08-07T19:32:10.539Z,96127.00
2022-08-07T19:36:16.322Z,96123.00
2022-08-07T19:40:50.360Z,96121.00
2022-08-07T19:44:56.516Z,96122.00
2022-08-07T19:49:06.814Z,96117.00
2022-08-07T19:54:33.485Z,96123.00
2022-08-07T19:58:03.205Z,96126.00
2022-08-07T20:02:13.537Z,96127.00
2022-08-07T20:06:30.495Z,96127.00
2022-08-07T20:10:54.729Z,96121.00
2022-08-07T20:15:02.549Z,96117.00
2022-08-07T20:19:11.079Z,96117.00
2022-08-07T20:23:41.088Z,96117.00
2022-08-07T20:27:47.509Z,96116.00
2022-08-07T20:31:52.046Z,96118.00
2022-08-07T20:36:01.414Z,96106.00
2022-08-07T20:40:33.510Z,96110.00
2022-08-07T20:44:33.627Z,96114.00
2022-08-07T20:48:38.115Z,96105.00
2022-08-07T20:53:02.306Z,96109.00
2022-08-07T20:57:10.173Z,96104.00
2022-08-07T21:01:19.783Z,96105.00
2022-08-07T21:05:50.781Z,96107.00
2022-08-07T21:09:59.207Z,96102.00
2022-08-07T21:14:32.096Z,96105.00
2022-08-07T21:18:36.756Z,96104.00
2022-08-07T21:22:51.394Z,96106.00
2022-08-07T21:27:07.289Z,96104.00
2022-08-07T21:31:15.085Z,96104.00
2022-08-07T21:36:04.383Z,96106.00
2022-08-07T21:39:56.560Z,96106.00
2022-08-07T21:44:08.402Z,96101.00
2022-08-07T21:48:28.601Z,96099.00
2022-08-07T21:52:44.663Z,96106.00
2022-08-07T21:57:30.973Z,96110.00
2022-08-07T22:02:06.934Z,96120.00
2022-08-07T22:06:30.272Z,96123.00
2022-08-07T22:10:42.295Z,96114.00
2022-08-07T22:14:59.350Z,96112.00
2022-08-07T22:19:09.695Z,96119.00
2022-08-07T22:23:21.758Z,96116.00
2022-08-07T22:27:51.220Z,96125.00
2022-08-07T22:32:00.091Z,96121.00
2022-08-07T22:36:23.498Z,96127.00
2022-08-07T22:40:34.119Z,96136.00
2022-08-07T22:44:56.923Z,96134.00
2022-08-07T22:49:15.922Z,96132.00
2022-08-07T22:54:07.947Z,96134.00
2022-08-07T22:58:38.004Z,96137.00
2022-08-07T23:03:18.887Z,96126.00
2022-08-07T23:07:41.289Z,96132.00
2022-08-07T23:11:59.908Z,96126.00
2022-08-07T23:16:44.459Z,96120.00
2022-08-07T23:20:58.054Z,96119.00
2022-08-07T23:25:16.068Z,96118.00
2022-08-07T23:30:37.609Z,96114.00
2022-08-07T23:34:46.003Z,96112.00
2022-08-07T23:39:02.654Z,96110.00
2022-08-07T23:43:43.882Z,96114.00
2022-08-07T23:48:06.015Z,96115.00
2022-08-07T23:53:17.529Z,96103.00
2022-08-07T23:56:57.659Z,96099.00
